Querencia do Norte, Brazil
Current Conditions -  °F | °C
As of 4:00 PM on Thursday 30 Oct 2014 (Local Time) from SBMG Reporting Station
Rain Showers Rain Showers  
Wind Chill: 91°   Ceiling: Unl
Heat Index: 94°   Visibility: 6mi
Dew Point: 66°   Wind: 12mph
Humidity: 43%   Direction: 300°WNW
Pressure: 29.74"   Gusts: 23mph
Location:  23.08°S, 53.48°W
Report Text: SBMG 301800Z 30010G20KT 280V360 9999 VCSH FEW045 FEW050TCU 33/19 Q1007
Loading
Personal Weather Stations






























Interactive Weather Map
Tropical Storm Tracking
New forecast layout! Learn more

10-Day Weather Forecast

Advertisements
Track Severe Weather on mobile